sensor_id;sensor_type;location;lat;lon;timestamp;pressure;altitude;pressure_sealevel;temperature;humidity
10587;BME280;5341;47.606;7.576;2023-04-01T00:01:07;97856.84;;;14.01;53.25
10587;BME280;5341;47.606;7.576;2023-04-01T00:03:35;97851.47;;;14.01;53.33
10587;BME280;5341;47.606;7.576;2023-04-01T00:06:03;97853.34;;;14.01;53.19
10587;BME280;5341;47.606;7.576;2023-04-01T00:08:32;97853.09;;;14.02;53.30
10587;BME280;5341;47.606;7.576;2023-04-01T00:10:59;97839.66;;;14.02;53.10
10587;BME280;5341;47.606;7.576;2023-04-01T00:13:27;97842.34;;;14.02;53.13
10587;BME280;5341;47.606;7.576;2023-04-01T00:15:55;97834.53;;;14.01;53.03
10587;BME280;5341;47.606;7.576;2023-04-01T00:18:23;97831.25;;;13.99;53.27
10587;BME280;5341;47.606;7.576;2023-04-01T00:20:51;97822.34;;;13.98;53.17
10587;BME280;5341;47.606;7.576;2023-04-01T00:23:19;97823.19;;;13.99;53.38
10587;BME280;5341;47.606;7.576;2023-04-01T00:25:49;97816.97;;;13.98;53.38
10587;BME280;5341;47.606;7.576;2023-04-01T00:28:17;97818.03;;;13.97;53.20
10587;BME280;5341;47.606;7.576;2023-04-01T00:30:45;97820.94;;;13.96;53.35
10587;BME280;5341;47.606;7.576;2023-04-01T00:33:13;97821.19;;;13.94;53.25
10587;BME280;5341;47.606;7.576;2023-04-01T00:35:40;97818.34;;;13.89;53.32
10587;BME280;5341;47.606;7.576;2023-04-01T00:38:08;97822.38;;;13.80;53.45
10587;BME280;5341;47.606;7.576;2023-04-01T00:40:38;97825.97;;;13.74;53.68
10587;BME280;5341;47.606;7.576;2023-04-01T00:43:12;97829.34;;;13.69;53.58
10587;BME280;5341;47.606;7.576;2023-04-01T00:45:41;97829.41;;;13.63;53.94
10587;BME280;5341;47.606;7.576;2023-04-01T00:48:11;97839.41;;;13.56;54.39
10587;BME280;5341;47.606;7.576;2023-04-01T00:50:45;97833.53;;;13.47;54.57
10587;BME280;5341;47.606;7.576;2023-04-01T00:53:13;97828.81;;;13.42;54.80
10587;BME280;5341;47.606;7.576;2023-04-01T00:55:46;97834.09;;;13.31;54.96
10587;BME280;5341;47.606;7.576;2023-04-01T00:58:18;97843.63;;;13.27;54.91
10587;BME280;5341;47.606;7.576;2023-04-01T01:00:48;97828.81;;;13.24;55.31
10587;BME280;5341;47.606;7.576;2023-04-01T01:03:17;97826.13;;;13.24;55.22
10587;BME280;5341;47.606;7.576;2023-04-01T01:06:07;97814.78;;;13.22;55.48
10587;BME280;5341;47.606;7.576;2023-04-01T01:08:48;97817.03;;;13.25;55.53
10587;BME280;5341;47.606;7.576;2023-04-01T01:11:28;97810.47;;;13.21;55.40
10587;BME280;5341;47.606;7.576;2023-04-01T01:14:01;97815.22;;;13.19;55.46
10587;BME280;5341;47.606;7.576;2023-04-01T01:16:36;97806.97;;;13.21;55.78
10587;BME280;5341;47.606;7.576;2023-04-01T01:19:32;97799.91;;;13.19;55.46
10587;BME280;5341;47.606;7.576;2023-04-01T01:22:20;97805.91;;;13.22;55.33
10587;BME280;5341;47.606;7.576;2023-04-01T01:24:58;97810.66;;;13.19;55.59
10587;BME280;5341;47.606;7.576;2023-04-01T01:27:34;97815.84;;;13.21;55.40
10587;BME280;5341;47.606;7.576;2023-04-01T01:30:31;97826.13;;;13.24;55.11
10587;BME280;5341;47.606;7.576;2023-04-01T01:33:39;97836.50;;;13.21;54.79
10587;BME280;5341;47.606;7.576;2023-04-01T01:36:16;97836.97;;;13.11;55.03
10587;BME280;5341;47.606;7.576;2023-04-01T01:38:48;97844.84;;;13.06;55.00
10587;BME280;5341;47.606;7.576;2023-04-01T01:41:22;97841.56;;;13.04;55.37
10587;BME280;5341;47.606;7.576;2023-04-01T01:43:53;97832.69;;;13.03;55.07
10587;BME280;5341;47.606;7.576;2023-04-01T01:46:25;97841.41;;;12.99;55.17
10587;BME280;5341;47.606;7.576;2023-04-01T01:48:54;97831.50;;;12.99;54.96
10587;BME280;5341;47.606;7.576;2023-04-01T01:51:24;97827.16;;;12.98;55.10
10587;BME280;5341;47.606;7.576;2023-04-01T01:53:54;97830.44;;;13.00;55.15
10587;BME280;5341;47.606;7.576;2023-04-01T01:56:23;97823.00;;;13.02;55.16
10587;BME280;5341;47.606;7.576;2023-04-01T01:58:56;97824.19;;;13.06;55.28
10587;BME280;5341;47.606;7.576;2023-04-01T02:01:28;97813.38;;;13.13;55.27
10587;BME280;5341;47.606;7.576;2023-04-01T02:04:02;97818.53;;;13.14;54.91
10587;BME280;5341;47.606;7.576;2023-04-01T02:06:34;97819.13;;;13.16;54.93
10587;BME280;5341;47.606;7.576;2023-04-01T02:09:08;97817.88;;;13.19;54.51
10587;BME280;5341;47.606;7.576;2023-04-01T02:11:45;97814.16;;;13.20;54.60
10587;BME280;5341;47.606;7.576;2023-04-01T02:14:17;97814.16;;;13.20;54.60
10587;BME280;5341;47.606;7.576;2023-04-01T02:16:49;97807.16;;;13.19;54.34
10587;BME280;5341;47.606;7.576;2023-04-01T02:19:23;97817.06;;;13.18;54.50
10587;BME280;5341;47.606;7.576;2023-04-01T02:22:00;97820.38;;;13.21;54.42
10587;BME280;5341;47.606;7.576;2023-04-01T02:24:30;97813.34;;;13.19;54.37
10587;BME280;5341;47.606;7.576;2023-04-01T02:26:59;97811.91;;;13.17;54.46
10587;BME280;5341;47.606;7.576;2023-04-01T02:29:27;97812.72;;;13.17;54.27
10587;BME280;5341;47.606;7.576;2023-04-01T02:31:59;97822.44;;;13.18;54.33
10587;BME280;5341;47.606;7.576;2023-04-01T02:34:27;97815.63;;;13.16;54.52
10587;BME280;5341;47.606;7.576;2023-04-01T02:36:56;97823.09;;;13.14;54.11
10587;BME280;5341;47.606;7.576;2023-04-01T02:39:24;97830.91;;;13.15;54.16
10587;BME280;5341;47.606;7.576;2023-04-01T02:41:53;97822.44;;;13.18;54.09
10587;BME280;5341;47.606;7.576;2023-04-01T02:44:20;97818.91;;;13.18;53.99
10587;BME280;5341;47.606;7.576;2023-04-01T02:46:48;97817.25;;;13.17;54.04
10587;BME280;5341;47.606;7.576;2023-04-01T02:49:15;97833.38;;;13.17;54.03
10587;BME280;5341;47.606;7.576;2023-04-01T02:51:43;97834.00;;;13.19;53.79
10587;BME280;5341;47.606;7.576;2023-04-01T02:54:13;97834.41;;;13.16;54.05
10587;BME280;5341;47.606;7.576;2023-04-01T02:56:41;97848.78;;;13.03;54.43
10587;BME280;5341;47.606;7.576;2023-04-01T02:59:09;97856.50;;;12.93;55.11
10587;BME280;5341;47.606;7.576;2023-04-01T03:01:36;97842.50;;;12.91;55.19
10587;BME280;5341;47.606;7.576;2023-04-01T03:04:04;97832.19;;;12.88;55.53
10587;BME280;5341;47.606;7.576;2023-04-01T03:06:31;97859.47;;;12.85;55.80
10587;BME280;5341;47.606;7.576;2023-04-01T03:08:59;97854.75;;;12.80;56.12
10587;BME280;5341;47.606;7.576;2023-04-01T03:11:29;97847.19;;;12.71;56.31
10587;BME280;5341;47.606;7.576;2023-04-01T03:13:56;97849.50;;;12.67;56.60
10587;BME280;5341;47.606;7.576;2023-04-01T03:16:24;97849.69;;;12.72;56.50
10587;BME280;5341;47.606;7.576;2023-04-01T03:18:52;97837.84;;;12.80;56.70
10587;BME280;5341;47.606;7.576;2023-04-01T03:21:22;97845.03;;;12.86;56.80
10587;BME280;5341;47.606;7.576;2023-04-01T03:23:50;97841.44;;;12.92;56.29
10587;BME280;5341;47.606;7.576;2023-04-01T03:26:18;97827.59;;;12.95;56.35
10587;BME280;5341;47.606;7.576;2023-04-01T03:28:51;97832.94;;;12.95;56.48
10587;BME280;5341;47.606;7.576;2023-04-01T03:31:24;97829.22;;;12.96;56.35
10587;BME280;5341;47.606;7.576;2023-04-01T03:33:55;97830.06;;;12.97;55.95
10587;BME280;5341;47.606;7.576;2023-04-01T03:36:23;97833.78;;;12.96;56.21
10587;BME280;5341;47.606;7.576;2023-04-01T03:38:51;97831.50;;;12.99;56.37
10587;BME280;5341;47.606;7.576;2023-04-01T03:41:26;97831.84;;;13.03;56.43
10587;BME280;5341;47.606;7.576;2023-04-01T03:43:55;97835.13;;;13.05;56.64
10587;BME280;5341;47.606;7.576;2023-04-01T03:46:29;97836.56;;;13.07;56.16
10587;BME280;5341;47.606;7.576;2023-04-01T03:49:00;97831.59;;;13.11;56.44
10587;BME280;5341;47.606;7.576;2023-04-01T03:51:28;97834.28;;;13.11;56.41
10587;BME280;5341;47.606;7.576;2023-04-01T03:53:58;97839.41;;;13.12;55.92
10587;BME280;5341;47.606;7.576;2023-04-01T03:56:25;97836.72;;;13.12;55.96
10587;BME280;5341;47.606;7.576;2023-04-01T03:58:55;97821.91;;;13.10;56.14
10587;BME280;5341;47.606;7.576;2023-04-01T04:01:22;97827.50;;;13.08;56.39
10587;BME280;5341;47.606;7.576;2023-04-01T04:03:54;97827.69;;;13.07;56.44
10587;BME280;5341;47.606;7.576;2023-04-01T04:06:23;97833.06;;;13.07;56.08
10587;BME280;5341;47.606;7.576;2023-04-01T04:08:52;97840.72;;;13.03;56.00
10587;BME280;5341;47.606;7.576;2023-04-01T04:11:22;97837.44;;;13.01;56.45
10587;BME280;5341;47.606;7.576;2023-04-01T04:13:55;97831.25;;;13.01;56.17
10587;BME280;5341;47.606;7.576;2023-04-01T04:16:25;97837.44;;;13.01;55.96
10587;BME280;5341;47.606;7.576;2023-04-01T04:19:00;97834.41;;;12.98;56.13
10587;BME280;5341;47.606;7.576;2023-04-01T04:21:29;97837.72;;;12.93;56.39
10587;BME280;5341;47.606;7.576;2023-04-01T04:24:01;97837.94;;;12.91;56.23
10587;BME280;5341;47.606;7.576;2023-04-01T04:26:50;97828.47;;;12.89;56.10
10587;BME280;5341;47.606;7.576;2023-04-01T04:29:19;97826.84;;;12.88;56.22
10587;BME280;5341;47.606;7.576;2023-04-01T04:31:48;97826.03;;;12.87;55.88
10587;BME280;5341;47.606;7.576;2023-04-01T04:34:16;97827.66;;;12.88;56.21
10587;BME280;5341;47.606;7.576;2023-04-01T04:36:44;97824.38;;;12.86;55.83
10587;BME280;5341;47.606;7.576;2023-04-01T04:39:21;97816.97;;;12.82;56.13
10587;BME280;5341;47.606;7.576;2023-04-01T04:41:49;97816.00;;;12.76;56.26
10587;BME280;5341;47.606;7.576;2023-04-01T04:44:17;97826.78;;;12.70;56.12
10587;BME280;5341;47.606;7.576;2023-04-01T04:46:46;97813.81;;;12.67;56.61
10587;BME280;5341;47.606;7.576;2023-04-01T04:49:19;97808.88;;;12.64;56.49
10587;BME280;5341;47.606;7.576;2023-04-01T04:51:48;97807.25;;;12.63;56.42
10587;BME280;5341;47.606;7.576;2023-04-01T04:54:22;97811.78;;;12.62;56.20
10587;BME280;5341;47.606;7.576;2023-04-01T04:56:55;97812.59;;;12.63;56.41
10587;BME280;5341;47.606;7.576;2023-04-01T04:59:28;97816.72;;;12.65;56.74
10587;BME280;5341;47.606;7.576;2023-04-01T05:02:20;97810.91;;;12.68;56.68
10587;BME280;5341;47.606;7.576;2023-04-01T05:05:03;97807.16;;;12.69;56.55
10587;BME280;5341;47.606;7.576;2023-04-01T05:07:39;97808.44;;;12.67;56.44
10587;BME280;5341;47.606;7.576;2023-04-01T05:10:08;97811.34;;;12.65;56.45
10587;BME280;5341;47.606;7.576;2023-04-01T05:12:35;97811.56;;;12.64;56.46
10587;BME280;5341;47.606;7.576;2023-04-01T05:15:09;97804.34;;;12.64;56.41
10587;BME280;5341;47.606;7.576;2023-04-01T05:17:39;97815.28;;;12.63;56.12
10587;BME280;5341;47.606;7.576;2023-04-01T05:20:07;97821.25;;;12.65;56.21
10587;BME280;5341;47.606;7.576;2023-04-01T05:22:37;97822.88;;;12.66;56.45
10587;BME280;5341;47.606;7.576;2023-04-01T05:25:08;97819.38;;;12.65;56.22
10587;BME280;5341;47.606;7.576;2023-04-01T05:27:39;97823.34;;;12.63;56.58
10587;BME280;5341;47.606;7.576;2023-04-01T05:30:07;97820.88;;;12.61;56.30
10587;BME280;5341;47.606;7.576;2023-04-01T05:32:43;97810.78;;;12.56;56.56
10587;BME280;5341;47.606;7.576;2023-04-01T05:35:14;97809.75;;;12.57;56.49
10587;BME280;5341;47.606;7.576;2023-04-01T05:37:49;97799.59;;;12.59;56.44
10587;BME280;5341;47.606;7.576;2023-04-01T05:40:17;97792.19;;;12.61;56.75
10587;BME280;5341;47.606;7.576;2023-04-01T05:42:45;97791.97;;;12.63;56.19
10587;BME280;5341;47.606;7.576;2023-04-01T05:45:13;97791.75;;;12.65;56.44
10587;BME280;5341;47.606;7.576;2023-04-01T05:48:05;97800.38;;;12.67;56.04
10587;BME280;5341;47.606;7.576;2023-04-01T05:50:40;97795.63;;;12.69;56.52
10587;BME280;5341;47.606;7.576;2023-04-01T05:53:08;97799.72;;;12.71;56.31
10587;BME280;5341;47.606;7.576;2023-04-01T05:55:37;97800.75;;;12.70;56.19
10587;BME280;5341;47.606;7.576;2023-04-01T05:58:04;97799.94;;;12.70;56.68
10587;BME280;5341;47.606;7.576;2023-04-01T06:00:33;97805.31;;;12.70;56.33
10587;BME280;5341;47.606;7.576;2023-04-01T06:03:02;97804.50;;;12.69;56.39
10587;BME280;5341;47.606;7.576;2023-04-01T06:05:39;97809.03;;;12.69;56.28
10587;BME280;5341;47.606;7.576;2023-04-01T06:08:11;97813.81;;;12.67;56.77
10587;BME280;5341;47.606;7.576;2023-04-01T06:13:50;97817.56;;;12.59;57.44
10587;BME280;5341;47.606;7.576;2023-04-01T06:16:34;97819.66;;;12.57;57.40
10587;BME280;5341;47.606;7.576;2023-04-01T06:19:13;97818.00;;;12.56;57.25
10587;BME280;5341;47.606;7.576;2023-04-01T06:22:26;97815.16;;;12.51;57.56
10587;BME280;5341;47.606;7.576;2023-04-01T06:25:32;97836.03;;;12.49;57.52
10587;BME280;5341;47.606;7.576;2023-04-01T06:28:26;97820.97;;;12.48;57.72
10587;BME280;5341;47.606;7.576;2023-04-01T06:31:03;97813.94;;;12.47;58.36
10587;BME280;5341;47.606;7.576;2023-04-01T06:33:52;97800.13;;;12.50;58.04
10587;BME280;5341;47.606;7.576;2023-04-01T06:36:40;97808.53;;;12.53;58.46
10587;BME280;5341;47.606;7.576;2023-04-01T06:39:40;97809.97;;;12.56;58.16
10587;BME280;5341;47.606;7.576;2023-04-01T06:42:51;97798.63;;;12.54;58.44
10587;BME280;5341;47.606;7.576;2023-04-01T06:46:02;97800.94;;;12.50;58.18
10587;BME280;5341;47.606;7.576;2023-04-01T06:49:05;97803.03;;;12.48;58.67
10587;BME280;5341;47.606;7.576;2023-04-01T06:52:02;97809.22;;;12.49;58.50
10587;BME280;5341;47.606;7.576;2023-04-01T06:54:57;97809.22;;;12.49;58.78
10587;BME280;5341;47.606;7.576;2023-04-01T06:57:47;97812.75;;;12.43;59.25
10587;BME280;5341;47.606;7.576;2023-04-01T07:00:22;97810.66;;;12.45;59.16
10587;BME280;5341;47.606;7.576;2023-04-01T07:02:57;97816.63;;;12.47;59.31
10587;BME280;5341;47.606;7.576;2023-04-01T07:05:35;97808.38;;;12.48;59.26
10587;BME280;5341;47.606;7.576;2023-04-01T07:08:06;97810.28;;;12.41;59.77
10587;BME280;5341;47.606;7.576;2023-04-01T07:10:43;97812.59;;;12.38;59.63
10587;BME280;5341;47.606;7.576;2023-04-01T07:13:34;97815.69;;;12.35;59.91
10587;BME280;5341;47.606;7.576;2023-04-01T07:16:17;97809.94;;;12.31;59.94
10587;BME280;5341;47.606;7.576;2023-04-01T07:18:48;97830.56;;;12.30;59.95
10587;BME280;5341;47.606;7.576;2023-04-01T07:21:26;97829.09;;;12.35;60.09
10587;BME280;5341;47.606;7.576;2023-04-01T07:24:03;97833.22;;;12.37;60.08
10587;BME280;5341;47.606;7.576;2023-04-01T07:26:40;97833.38;;;12.42;59.69
10587;BME280;5341;47.606;7.576;2023-04-01T07:29:13;97835.22;;;12.42;60.15
10587;BME280;5341;47.606;7.576;2023-04-01T07:34:53;97851.69;;;12.45;60.06
10587;BME280;5341;47.606;7.576;2023-04-01T07:37:28;97847.16;;;12.46;60.19
10587;BME280;5341;47.606;7.576;2023-04-01T07:40:05;97847.78;;;12.48;60.36
10587;BME280;5341;47.606;7.576;2023-04-01T07:42:51;97863.03;;;12.47;60.26
10587;BME280;5341;47.606;7.576;2023-04-01T07:45:30;97858.09;;;12.44;60.54
10587;BME280;5341;47.606;7.576;2023-04-01T07:48:18;97867.56;;;12.47;60.15
10587;BME280;5341;47.606;7.576;2023-04-01T07:50:55;97865.94;;;12.46;60.54
10587;BME280;5341;47.606;7.576;2023-04-01T07:53:32;97861.19;;;12.48;60.66
10587;BME280;5341;47.606;7.576;2023-04-01T07:56:10;97859.94;;;12.50;60.25
10587;BME280;5341;47.606;7.576;2023-04-01T07:58:52;97852.53;;;12.46;60.63
10587;BME280;5341;47.606;7.576;2023-04-01T08:01:45;97843.50;;;12.40;60.97
10587;BME280;5341;47.606;7.576;2023-04-01T08:04:42;97856.84;;;12.47;61.13
10587;BME280;5341;47.606;7.576;2023-04-01T08:07:18;97848.81;;;12.47;60.80
10587;BME280;5341;47.606;7.576;2023-04-01T08:10:13;97843.63;;;12.52;60.41
10587;BME280;5341;47.606;7.576;2023-04-01T08:13:11;97847.94;;;12.53;60.72
10587;BME280;5341;47.606;7.576;2023-04-01T08:16:09;97846.69;;;12.55;60.87
10587;BME280;5341;47.606;7.576;2023-04-01T08:18:54;97845.22;;;12.59;60.43
10587;BME280;5341;47.606;7.576;2023-04-01T08:21:30;97840.50;;;12.55;60.84
10587;BME280;5341;47.606;7.576;2023-04-01T08:24:13;97853.09;;;12.54;60.81
10587;BME280;5341;47.606;7.576;2023-04-01T08:26:51;97858.47;;;12.54;60.54
10587;BME280;5341;47.606;7.576;2023-04-01T08:29:24;97855.63;;;12.49;60.61
10587;BME280;5341;47.606;7.576;2023-04-01T08:32:03;97856.66;;;12.48;60.89
10587;BME280;5341;47.606;7.576;2023-04-01T08:34:37;97859.34;;;12.48;61.21
10587;BME280;5341;47.606;7.576;2023-04-01T08:37:12;97871.69;;;12.49;61.00
10587;BME280;5341;47.606;7.576;2023-04-01T08:39:47;97866.97;;;12.45;61.08
10587;BME280;5341;47.606;7.576;2023-04-01T08:42:31;97862.03;;;12.42;60.83
10587;BME280;5341;47.606;7.576;2023-04-01T08:45:26;97851.97;;;12.37;60.97
10587;BME280;5341;47.606;7.576;2023-04-01T08:48:19;97854.84;;;12.36;61.57
10587;BME280;5341;47.606;7.576;2023-04-01T08:51:07;97857.75;;;12.34;60.99
10587;BME280;5341;47.606;7.576;2023-04-01T08:54:04;97854.84;;;12.36;61.38
10587;BME280;5341;47.606;7.576;2023-04-01T08:56:40;97843.16;;;12.30;61.59
10587;BME280;5341;47.606;7.576;2023-04-01T08:59:49;97850.75;;;12.33;61.35
10587;BME280;5341;47.606;7.576;2023-04-01T09:03:09;97854.03;;;12.35;61.18
10587;BME280;5341;47.606;7.576;2023-04-01T09:05:55;97845.38;;;12.33;61.61
10587;BME280;5341;47.606;7.576;2023-04-01T09:08:34;97844.34;;;12.34;61.48
10587;BME280;5341;47.606;7.576;2023-04-01T09:11:09;97840.84;;;12.33;61.41
10587;BME280;5341;47.606;7.576;2023-04-01T09:14:20;97847.69;;;12.29;61.34
10587;BME280;5341;47.606;7.576;2023-04-01T09:17:29;97853.44;;;12.33;61.68
10587;BME280;5341;47.606;7.576;2023-04-01T09:20:19;97851.97;;;12.37;61.93
10587;BME280;5341;47.606;7.576;2023-04-01T09:23:12;97866.22;;;12.38;61.72
10587;BME280;5341;47.606;7.576;2023-04-01T09:25:53;97862.25;;;12.40;61.73
10587;BME280;5341;47.606;7.576;2023-04-01T09:28:28;97866.81;;;12.40;61.99
10587;BME280;5341;47.606;7.576;2023-04-01T09:31:13;97870.91;;;12.42;62.04
10587;BME280;5341;47.606;7.576;2023-04-01T09:34:25;97877.28;;;12.48;61.97
10587;BME280;5341;47.606;7.576;2023-04-01T09:37:17;97878.94;;;12.49;61.69
10587;BME280;5341;47.606;7.576;2023-04-01T09:40:08;97873.75;;;12.47;61.99
10587;BME280;5341;47.606;7.576;2023-04-01T09:42:47;97885.34;;;12.48;62.13
10587;BME280;5341;47.606;7.576;2023-04-01T09:45:43;97886.31;;;12.53;62.00
10587;BME280;5341;47.606;7.576;2023-04-01T09:48:26;97882.00;;;12.52;62.54
10587;BME280;5341;47.606;7.576;2023-04-01T09:51:06;97891.47;;;12.55;62.33
10587;BME280;5341;47.606;7.576;2023-04-01T09:53:49;97882.59;;;12.54;62.15
10587;BME280;5341;47.606;7.576;2023-04-01T10:06:36;97892.06;;;12.57;63.19
10587;BME280;5341;47.606;7.576;2023-04-01T10:12:47;97890.38;;;12.63;63.08
10587;BME280;5341;47.606;7.576;2023-04-01T10:18:35;97902.06;;;12.75;63.48
10587;BME280;5341;47.606;7.576;2023-04-01T10:21:37;97911.91;;;12.81;63.02
10587;BME280;5341;47.606;7.576;2023-04-01T10:24:23;97914.59;;;12.81;62.65
10587;BME280;5341;47.606;7.576;2023-04-01T10:34:05;97907.47;;;12.68;62.36
10587;BME280;5341;47.606;7.576;2023-04-01T10:36:55;97911.38;;;12.72;63.17
10587;BME280;5341;47.606;7.576;2023-04-01T10:40:08;97910.94;;;12.75;62.89
10587;BME280;5341;47.606;7.576;2023-04-01T10:46:31;97918.38;;;12.73;62.87
10587;BME280;5341;47.606;7.576;2023-04-01T10:55:54;97926.38;;;12.80;63.65
10587;BME280;5341;47.606;7.576;2023-04-01T10:59:20;97930.31;;;12.77;63.30
10587;BME280;5341;47.606;7.576;2023-04-01T11:08:59;97904.75;;;12.75;63.59
10587;BME280;5341;47.606;7.576;2023-04-01T11:15:05;97903.59;;;12.89;63.92
10587;BME280;5341;47.606;7.576;2023-04-01T11:17:59;97917.78;;;12.96;63.87
10587;BME280;5341;47.606;7.576;2023-04-01T11:21:05;97910.13;;;13.00;63.51
10587;BME280;5341;47.606;7.576;2023-04-01T11:23:53;97899.19;;;13.01;63.50
10587;BME280;5341;47.606;7.576;2023-04-01T11:26:32;97900.16;;;13.07;63.23
10587;BME280;5341;47.606;7.576;2023-04-01T11:30:07;97893.91;;;13.13;63.11
10587;BME280;5341;47.606;7.576;2023-04-01T11:32:46;97896.75;;;13.18;62.95
10587;BME280;5341;47.606;7.576;2023-04-01T11:35:32;97896.38;;;13.14;62.52
10587;BME280;5341;47.606;7.576;2023-04-01T11:38:14;97892.06;;;13.13;61.98
10587;BME280;5341;47.606;7.576;2023-04-01T11:40:49;97899.06;;;13.14;62.09
10587;BME280;5341;47.606;7.576;2023-04-01T11:43:41;97893.47;;;13.16;62.49
10587;BME280;5341;47.606;7.576;2023-04-01T11:46:36;97902.75;;;13.20;62.74
10587;BME280;5341;47.606;7.576;2023-04-01T11:49:29;97897.94;;;13.29;62.24
10587;BME280;5341;47.606;7.576;2023-04-01T11:52:46;97894.38;;;13.35;62.14
10587;BME280;5341;47.606;7.576;2023-04-01T11:55:37;97897.00;;;13.41;61.94
10587;BME280;5341;47.606;7.576;2023-04-01T11:58:27;97890.34;;;13.44;62.04
10587;BME280;5341;47.606;7.576;2023-04-01T12:01:08;97890.97;;;13.46;61.92
10587;BME280;5341;47.606;7.576;2023-04-01T12:04:00;97877.69;;;13.51;61.90
10587;BME280;5341;47.606;7.576;2023-04-01T12:06:37;97884.41;;;13.60;62.43
10587;BME280;5341;47.606;7.576;2023-04-01T12:09:14;97884.09;;;13.68;62.31
10587;BME280;5341;47.606;7.576;2023-04-01T12:11:50;97887.09;;;13.78;62.67
10587;BME280;5341;47.606;7.576;2023-04-01T12:14:23;97874.78;;;13.89;62.15
10587;BME280;5341;47.606;7.576;2023-04-01T12:17:00;97872.25;;;13.94;61.71
10587;BME280;5341;47.606;7.576;2023-04-01T12:19:40;97860.69;;;13.94;61.41
10587;BME280;5341;47.606;7.576;2023-04-01T12:22:25;97873.44;;;13.98;61.25
10587;BME280;5341;47.606;7.576;2023-04-01T12:25:05;97878.81;;;13.98;61.27
10587;BME280;5341;47.606;7.576;2023-04-01T12:27:42;97888.16;;;13.96;60.94
10587;BME280;5341;47.606;7.576;2023-04-01T12:30:49;97887.09;;;13.97;61.13
10587;BME280;5341;47.606;7.576;2023-04-01T12:33:47;97884.63;;;13.95;61.63
10587;BME280;5341;47.606;7.576;2023-04-01T12:36:40;97888.50;;;13.99;61.41
10587;BME280;5341;47.606;7.576;2023-04-01T12:39:41;97871.09;;;14.02;61.15
10587;BME280;5341;47.606;7.576;2023-04-01T12:42:19;97869.00;;;14.04;61.17
10587;BME280;5341;47.606;7.576;2023-04-01T12:45:02;97874.78;;;14.07;60.29
10587;BME280;5341;47.606;7.576;2023-04-01T12:48:01;97878.63;;;14.12;60.50
10587;BME280;5341;47.606;7.576;2023-04-01T12:50:45;97881.69;;;14.15;60.48
10587;BME280;5341;47.606;7.576;2023-04-01T12:53:33;97871.09;;;14.20;60.24
10587;BME280;5341;47.606;7.576;2023-04-01T12:56:03;97867.13;;;14.23;59.66
10587;BME280;5341;47.606;7.576;2023-04-01T12:59:01;97874.13;;;14.24;59.18
10587;BME280;5341;47.606;7.576;2023-04-01T13:02:01;97879.06;;;14.27;59.41
10587;BME280;5341;47.606;7.576;2023-04-01T13:05:01;97884.66;;;14.25;59.06
10587;BME280;5341;47.606;7.576;2023-04-01T13:11:02;97899.50;;;14.28;59.57
10587;BME280;5341;47.606;7.576;2023-04-01T13:16:29;97895.56;;;14.30;59.33
10587;BME280;5341;47.606;7.576;2023-04-01T13:19:01;97903.19;;;14.33;59.26
10587;BME280;5341;47.606;7.576;2023-04-01T13:21:39;97893.25;;;14.34;59.36
10587;BME280;5341;47.606;7.576;2023-04-01T13:24:22;97890.09;;;14.37;59.57
10587;BME280;5341;47.606;7.576;2023-04-01T13:26:59;97892.94;;;14.42;58.68
10587;BME280;5341;47.606;7.576;2023-04-01T13:29:36;97892.53;;;14.38;58.40
10587;BME280;5341;47.606;7.576;2023-04-01T13:32:15;97899.75;;;14.45;58.43
10587;BME280;5341;47.606;7.576;2023-04-01T13:35:01;97907.59;;;14.46;58.35
10587;BME280;5341;47.606;7.576;2023-04-01T13:37:51;97902.22;;;14.46;57.82
10587;BME280;5341;47.606;7.576;2023-04-01T13:40:33;97888.28;;;14.49;57.89
10587;BME280;5341;47.606;7.576;2023-04-01T13:43:14;97893.22;;;14.52;56.94
10587;BME280;5341;47.606;7.576;2023-04-01T13:45:56;97878.72;;;14.53;57.20
10587;BME280;5341;47.606;7.576;2023-04-01T13:51:45;97885.66;;;14.61;56.31
10587;BME280;5341;47.606;7.576;2023-04-01T13:54:41;97893.41;;;14.69;55.86
10587;BME280;5341;47.606;7.576;2023-04-01T13:57:23;97894.81;;;14.72;55.70
10587;BME280;5341;47.606;7.576;2023-04-01T14:00:19;97889.34;;;14.78;54.97
10587;BME280;5341;47.606;7.576;2023-04-01T14:03:01;97888.63;;;14.83;54.72
10587;BME280;5341;47.606;7.576;2023-04-01T14:05:48;97898.94;;;14.86;54.42
10587;BME280;5341;47.606;7.576;2023-04-01T14:08:30;97891.34;;;14.94;54.61
10587;BME280;5341;47.606;7.576;2023-04-01T14:11:10;97881.41;;;15.07;54.50
10587;BME280;5341;47.606;7.576;2023-04-01T14:13:47;97883.31;;;15.18;54.71
10587;BME280;5341;47.606;7.576;2023-04-01T14:16:47;97883.19;;;15.24;54.30
10587;BME280;5341;47.606;7.576;2023-04-01T14:19:27;97886.09;;;15.23;53.65
10587;BME280;5341;47.606;7.576;2023-04-01T14:22:09;97893.63;;;15.33;53.74
10587;BME280;5341;47.606;7.576;2023-04-01T14:24:52;97873.84;;;15.39;54.00
10587;BME280;5341;47.606;7.576;2023-04-01T14:27:42;97897.38;;;15.32;52.84
10587;BME280;5341;47.606;7.576;2023-04-01T14:30:27;97881.53;;;15.12;53.26
10587;BME280;5341;47.606;7.576;2023-04-01T14:33:05;97880.03;;;15.04;52.99
10587;BME280;5341;47.606;7.576;2023-04-01T14:35:45;97874.50;;;14.99;53.33
10587;BME280;5341;47.606;7.576;2023-04-01T14:38:47;97865.25;;;14.95;51.91
10587;BME280;5341;47.606;7.576;2023-04-01T14:41:23;97861.84;;;14.88;52.51
10587;BME280;5341;47.606;7.576;2023-04-01T14:47:09;97867.59;;;14.91;53.02
10587;BME280;5341;47.606;7.576;2023-04-01T14:49:46;97864.91;;;14.91;53.01
10587;BME280;5341;47.606;7.576;2023-04-01T14:52:17;97864.91;;;14.91;52.68
10587;BME280;5341;47.606;7.576;2023-04-01T14:54:50;97866.41;;;14.87;52.31
10587;BME280;5341;47.606;7.576;2023-04-01T14:57:23;97863.94;;;14.86;52.83
10587;BME280;5341;47.606;7.576;2023-04-01T14:59:54;97872.72;;;14.81;52.78
10587;BME280;5341;47.606;7.576;2023-04-01T15:02:46;97877.06;;;14.82;52.46
10587;BME280;5341;47.606;7.576;2023-04-01T15:05:30;97867.44;;;14.86;53.26
10587;BME280;5341;47.606;7.576;2023-04-01T15:08:18;97860.91;;;14.94;53.16
10587;BME280;5341;47.606;7.576;2023-04-01T15:11:22;97858.09;;;15.01;53.63
10587;BME280;5341;47.606;7.576;2023-04-01T15:14:04;97858.50;;;15.16;53.99
10587;BME280;5341;47.606;7.576;2023-04-01T15:16:43;97860.56;;;15.25;53.90
10587;BME280;5341;47.606;7.576;2023-04-01T15:19:22;97861.88;;;15.35;53.39